Vick, Arkansas
Current Conditions -  °F | °C
As of 1:53 PM on Monday 24 Nov 2014 (Local Time) from KLLQ Reporting Station
Clear Clear  
Wind Chill: 59°   Ceiling: Unl
Heat Index: 59°   Visibility: 10mi
Dew Point: 28°   Wind: 10mph
Humidity: 31%   Direction: 310°NW
Pressure: 29.93"   Gusts: NA
Location:  33.37°N, 92.1129°W
Report Text: KLLQ 241953Z AUTO 31009KT 10SM CLR 15/M02 A2993 RMK AO2 SLP135 T01501022
Loading
Personal Weather Stations






























Interactive Weather Map New forecast layout! Learn more

10-Day Weather Forecast

Advertisements
Track Severe Weather on mobile